createdAt,value
2022-08-11T00:00:08.999Z,74.46
2022-08-11T00:02:42.369Z,75.38
2022-08-11T00:05:12.385Z,75.81
2022-08-11T00:07:48.579Z,75.51
2022-08-11T00:10:18.813Z,75.94
2022-08-11T00:12:50.409Z,72.67
2022-08-11T00:15:17.476Z,75.35
2022-08-11T00:17:44.642Z,75.61
2022-08-11T00:20:16.770Z,76.38
2022-08-11T00:22:46.398Z,76.67
2022-08-11T00:25:15.982Z,77.12
2022-08-11T00:27:43.174Z,76.81
2022-08-11T00:30:12.186Z,76.88
2022-08-11T00:32:40.910Z,77.21
2022-08-11T00:35:51.864Z,77.60
2022-08-11T00:37:59.359Z,77.48
2022-08-11T00:40:39.370Z,77.98
2022-08-11T00:43:59.514Z,76.68
2022-08-11T00:46:26.104Z,77.53
2022-08-11T00:48:55.268Z,78.67
2022-08-11T00:52:04.349Z,78.35
2022-08-11T00:54:38.469Z,78.44
2022-08-11T00:57:36.168Z,78.50
2022-08-11T01:00:20.705Z,78.40
2022-08-11T01:03:09.085Z,78.44
2022-08-11T01:05:46.937Z,79.09
2022-08-11T01:08:49.211Z,78.73
2022-08-11T01:11:55.485Z,78.34
2022-08-11T01:15:12.880Z,78.09
2022-08-11T01:17:56.424Z,78.90
2022-08-11T01:20:48.594Z,79.63
2022-08-11T01:23:22.277Z,79.70
2022-08-11T01:26:19.732Z,79.68
2022-08-11T01:29:20.531Z,79.80
2022-08-11T01:32:02.500Z,80.37
2022-08-11T01:35:03.475Z,79.88
2022-08-11T01:37:57.378Z,80.23
2022-08-11T01:40:56.298Z,80.09
2022-08-11T01:44:18.839Z,80.51
2022-08-11T01:46:51.961Z,81.09
2022-08-11T01:50:07.638Z,80.55
2022-08-11T01:52:49.161Z,81.14
2022-08-11T01:55:26.728Z,81.70
2022-08-11T01:58:43.419Z,81.48
2022-08-11T02:01:45.467Z,81.51
2022-08-11T02:04:25.644Z,82.24
2022-08-11T02:07:30.945Z,82.09
2022-08-11T02:10:35.391Z,82.06
2022-08-11T02:13:44.662Z,81.50
2022-08-11T02:16:38.023Z,82.15
2022-08-11T02:19:40.985Z,82.75
2022-08-11T02:22:51.955Z,82.09
2022-08-11T02:25:36.871Z,82.48
2022-08-11T02:28:08.844Z,82.62
2022-08-11T02:30:42.600Z,82.86
2022-08-11T02:33:24.798Z,83.10
2022-08-11T02:36:01.233Z,83.04
2022-08-11T02:39:00.858Z,83.10
2022-08-11T02:42:08.867Z,83.45
2022-08-11T02:45:32.944Z,82.65
2022-08-11T02:48:36.903Z,82.31
2022-08-11T02:51:21.161Z,82.79
2022-08-11T02:54:20.561Z,83.06
2022-08-11T02:56:57.140Z,83.31
2022-08-11T02:59:51.182Z,83.68
2022-08-11T03:02:27.808Z,83.80
2022-08-11T03:05:13.733Z,83.79
2022-08-11T03:07:40.154Z,83.65
2022-08-11T03:10:20.577Z,84.02
2022-08-11T03:13:11.986Z,83.73
2022-08-11T03:16:09.281Z,83.94
2022-08-11T03:18:51.396Z,84.18
2022-08-11T03:22:01.695Z,84.07
2022-08-11T03:24:22.803Z,83.96
2022-08-11T03:27:08.486Z,83.98
2022-08-11T03:29:47.639Z,84.46
2022-08-11T03:32:36.203Z,84.55
2022-08-11T03:35:04.627Z,84.24
2022-08-11T03:37:50.454Z,84.78
2022-08-11T03:40:47.766Z,84.70
2022-08-11T03:43:50.267Z,84.86
2022-08-11T03:46:45.800Z,82.07
2022-08-11T03:49:18.024Z,83.65
2022-08-11T03:52:04.532Z,85.25
2022-08-11T03:55:04.398Z,85.67
2022-08-11T03:57:59.241Z,85.72
2022-08-11T04:01:08.033Z,85.92
2022-08-11T04:04:14.828Z,85.20
2022-08-11T04:07:02.758Z,85.21
2022-08-11T04:10:07.540Z,85.18
2022-08-11T04:13:08.435Z,85.25
2022-08-11T04:16:10.973Z,85.41
2022-08-11T04:19:05.832Z,85.72
2022-08-11T04:21:35.250Z,85.88
2022-08-11T04:24:35.223Z,85.62
2022-08-11T04:27:37.635Z,85.95
2022-08-11T04:30:21.682Z,85.78
2022-08-11T04:33:18.894Z,85.83
2022-08-11T04:36:09.692Z,86.06
2022-08-11T04:39:03.916Z,86.17
2022-08-11T04:42:29.623Z,86.38
2022-08-11T04:45:26.347Z,86.40
2022-08-11T04:48:30.346Z,86.09
2022-08-11T04:51:30.620Z,87.37
2022-08-11T04:54:59.731Z,87.21
2022-08-11T04:57:59.800Z,87.42
2022-08-11T05:00:52.814Z,87.50
2022-08-11T05:03:23.174Z,87.32
2022-08-11T05:06:24.704Z,87.75
2022-08-11T05:08:54.065Z,87.40
2022-08-11T05:11:32.806Z,87.84
2022-08-11T05:14:55.598Z,87.94
2022-08-11T05:17:54.612Z,88.10
2022-08-11T05:20:40.957Z,87.91
2022-08-11T05:23:28.174Z,87.94
2022-08-11T05:26:47.439Z,88.26
2022-08-11T05:29:43.027Z,88.19
2022-08-11T05:32:32.052Z,88.05
2022-08-11T05:35:03.652Z,87.88
2022-08-11T05:37:30.046Z,87.62
2022-08-11T05:40:24.028Z,87.93
2022-08-11T05:43:14.317Z,86.92
2022-08-11T05:46:04.554Z,85.76
2022-08-11T05:48:55.069Z,86.85
2022-08-11T05:51:51.990Z,85.70
2022-08-11T05:54:41.156Z,83.97
2022-08-11T05:57:07.942Z,82.56
2022-08-11T05:59:34.620Z,81.60
2022-08-11T06:02:07.355Z,81.48
2022-08-11T06:04:34.600Z,80.82
2022-08-11T06:07:08.887Z,80.12
2022-08-11T06:09:44.346Z,79.43
2022-08-11T06:12:38.012Z,78.45
2022-08-11T06:15:07.514Z,77.65
2022-08-11T06:17:44.270Z,76.59
2022-08-11T06:20:12.946Z,75.83
2022-08-11T06:22:43.744Z,74.77
2022-08-11T06:25:11.833Z,74.93
2022-08-11T06:27:40.775Z,74.85
2022-08-11T06:30:13.465Z,75.81
2022-08-11T06:32:45.903Z,73.89
2022-08-11T06:35:18.265Z,73.72
2022-08-11T06:37:58.992Z,73.71
2022-08-11T06:41:08.676Z,71.80
2022-08-11T06:43:55.978Z,71.85
2022-08-11T06:46:32.230Z,72.64
2022-08-11T06:49:03.170Z,72.67
2022-08-11T06:51:32.716Z,70.41
2022-08-11T06:54:04.394Z,68.44
2022-08-11T06:57:26.266Z,69.87
2022-08-11T07:00:04.801Z,67.04
2022-08-11T07:02:43.255Z,67.53
2022-08-11T07:05:18.303Z,67.35
2022-08-11T07:08:35.776Z,67.70
2022-08-11T07:11:35.316Z,65.62
2022-08-11T07:14:23.105Z,63.52
2022-08-11T07:16:51.651Z,63.95
2022-08-11T07:19:42.911Z,62.84
2022-08-11T07:22:30.333Z,62.56
2022-08-11T07:25:22.249Z,62.21
2022-08-11T07:28:15.299Z,61.73
2022-08-11T07:30:43.244Z,59.29
2022-08-11T07:33:21.137Z,58.44
2022-08-11T07:36:03.480Z,58.31
2022-08-11T07:38:51.585Z,58.34
2022-08-11T07:41:21.768Z,58.90
2022-08-11T07:44:09.188Z,57.98
2022-08-11T07:47:00.855Z,55.91
2022-08-11T07:49:48.020Z,55.12
2022-08-11T07:52:28.506Z,54.87
2022-08-11T07:55:02.310Z,57.18
2022-08-11T07:58:13.654Z,55.38
2022-08-11T08:01:02.914Z,53.87
2022-08-11T08:03:54.211Z,52.80
2022-08-11T08:06:41.647Z,54.29
2022-08-11T08:09:27.657Z,51.13
2022-08-11T08:12:13.962Z,51.35
2022-08-11T08:15:00.992Z,50.89
2022-08-11T08:18:20.730Z,49.74
2022-08-11T08:20:40.342Z,49.37
2022-08-11T08:23:08.010Z,48.26
2022-08-11T08:25:38.027Z,47.66
2022-08-11T08:28:06.579Z,50.78
2022-08-11T08:30:50.526Z,48.22
2022-08-11T08:33:16.874Z,48.79
2022-08-11T08:35:54.250Z,48.97
2022-08-11T08:38:22.518Z,49.47
2022-08-11T08:40:55.934Z,48.51
2022-08-11T08:43:24.194Z,47.92
2022-08-11T08:45:55.759Z,47.20
2022-08-11T08:48:24.850Z,45.27
2022-08-11T08:51:15.098Z,47.05
2022-08-11T08:53:52.544Z,46.03
2022-08-11T08:56:30.349Z,45.53
2022-08-11T08:58:59.418Z,43.42
2022-08-11T09:01:29.534Z,44.08
2022-08-11T09:04:07.298Z,46.63
2022-08-11T09:06:40.257Z,43.00
2022-08-11T09:09:08.891Z,43.13
2022-08-11T09:11:55.503Z,44.19
2022-08-11T09:14:55.519Z,43.56
2022-08-11T09:17:23.663Z,40.37
2022-08-11T09:20:01.551Z,41.39
2022-08-11T09:23:06.493Z,39.75
2022-08-11T09:25:55.524Z,36.78
2022-08-11T09:28:23.654Z,36.90
2022-08-11T09:30:55.110Z,35.17
2022-08-11T09:33:23.856Z,35.37
2022-08-11T09:35:52.478Z,35.08
2022-08-11T09:38:46.137Z,31.95
2022-08-11T09:41:15.599Z,31.69
2022-08-11T09:44:06.091Z,33.26
2022-08-11T09:46:35.733Z,29.75
2022-08-11T09:49:04.357Z,31.51
2022-08-11T09:51:32.157Z,30.80
2022-08-11T09:54:06.499Z,30.25
2022-08-11T09:56:52.511Z,28.44
2022-08-11T09:59:21.841Z,28.94
2022-08-11T10:01:50.545Z,32.19
2022-08-11T10:04:22.680Z,29.55
2022-08-11T10:07:05.403Z,29.88
2022-08-11T10:09:49.120Z,30.06
2022-08-11T10:12:27.887Z,29.57
2022-08-11T10:15:15.641Z,28.10
2022-08-11T10:18:06.084Z,27.39
2022-08-11T10:20:35.175Z,27.87
2022-08-11T10:23:21.749Z,27.77
2022-08-11T10:26:07.539Z,26.25
2022-08-11T10:28:50.093Z,27.49
2022-08-11T10:31:57.034Z,27.85
2022-08-11T10:34:25.552Z,25.39
2022-08-11T10:36:55.516Z,24.65
2022-08-11T10:39:22.845Z,25.68
2022-08-11T10:42:14.351Z,25.21
2022-08-11T10:44:52.000Z,25.69
2022-08-11T10:47:39.318Z,24.09
2022-08-11T10:50:32.464Z,24.53
2022-08-11T10:53:19.302Z,25.44
2022-08-11T10:58:50.095Z,25.04
2022-08-11T11:01:34.633Z,26.37
2022-08-11T11:04:15.602Z,25.27
2022-08-11T11:06:44.835Z,24.30
2022-08-11T11:09:14.591Z,27.57
2022-08-11T11:12:09.852Z,24.69
2022-08-11T11:14:59.354Z,23.35
2022-08-11T11:17:56.986Z,24.23
2022-08-11T11:20:36.790Z,22.94
2022-08-11T11:23:10.101Z,23.58
2022-08-11T11:26:06.902Z,23.24
2022-08-11T11:28:47.435Z,24.82
2022-08-11T11:31:32.040Z,23.91
2022-08-11T11:34:30.463Z,23.46
2022-08-11T11:36:59.827Z,21.84
2022-08-11T11:39:28.880Z,22.43
2022-08-11T11:41:56.162Z,24.44
2022-08-11T11:44:24.702Z,23.85
2022-08-11T11:46:52.497Z,22.44
2022-08-11T11:51:57.210Z,24.04
2022-08-11T11:54:26.592Z,23.73
2022-08-11T11:56:54.822Z,23.54
2022-08-11T11:59:43.109Z,21.89
2022-08-11T12:02:12.160Z,21.37
2022-08-11T12:04:43.101Z,21.93
2022-08-11T12:07:29.545Z,21.03
2022-08-11T12:09:57.681Z,22.20
2022-08-11T12:12:43.823Z,21.35
2022-08-11T12:15:11.575Z,21.21
2022-08-11T12:17:38.984Z,21.66
2022-08-11T12:20:30.851Z,21.05
2022-08-11T12:23:14.675Z,21.48
2022-08-11T12:26:26.424Z,20.76
2022-08-11T12:28:50.499Z,21.34
2022-08-11T12:31:17.447Z,20.35
2022-08-11T12:33:44.449Z,21.35
2022-08-11T12:36:15.735Z,21.25
2022-08-11T12:38:51.356Z,21.98
2022-08-11T12:41:39.536Z,21.98
2022-08-11T12:44:41.675Z,21.96
2022-08-11T12:47:09.253Z,21.54
2022-08-11T12:50:00.934Z,21.91
2022-08-11T12:52:29.893Z,21.40
2022-08-11T12:55:13.217Z,22.23
2022-08-11T12:58:03.924Z,21.07
2022-08-11T13:00:50.240Z,20.72
2022-08-11T13:03:38.707Z,21.38
2022-08-11T13:06:06.350Z,22.12
2022-08-11T13:08:36.731Z,21.92
2022-08-11T13:11:22.939Z,22.72
2022-08-11T13:13:57.017Z,22.70
2022-08-11T13:16:29.186Z,23.80
2022-08-11T13:18:58.663Z,21.76
2022-08-11T13:21:26.894Z,23.47
2022-08-11T13:23:59.736Z,22.24
2022-08-11T13:26:43.122Z,21.94
2022-08-11T13:29:14.908Z,21.20
2022-08-11T13:31:42.989Z,22.03
2022-08-11T13:34:10.283Z,21.90
2022-08-11T13:36:37.172Z,22.03
2022-08-11T13:39:04.203Z,21.21
2022-08-11T13:41:39.827Z,20.81
2022-08-11T13:44:08.090Z,21.63
2022-08-11T13:46:35.659Z,21.45
2022-08-11T13:49:02.926Z,20.97
2022-08-11T13:51:34.066Z,20.76
2022-08-11T13:54:30.134Z,22.32
2022-08-11T13:57:00.501Z,22.36
2022-08-11T13:59:30.819Z,21.73
2022-08-11T14:02:21.631Z,22.25
2022-08-11T14:04:56.692Z,20.94
2022-08-11T14:07:27.474Z,21.17
2022-08-11T14:09:58.944Z,21.55
2022-08-11T14:12:52.205Z,21.30
2022-08-11T14:15:25.500Z,20.77
2022-08-11T14:17:56.874Z,20.57
2022-08-11T14:20:39.030Z,21.03
2022-08-11T14:23:10.760Z,21.67
2022-08-11T14:26:00.842Z,20.72
2022-08-11T14:28:31.071Z,21.03
2022-08-11T14:31:02.835Z,21.55
2022-08-11T14:33:59.661Z,20.96
2022-08-11T14:36:21.530Z,21.73
2022-08-11T14:38:49.493Z,21.52
2022-08-11T14:41:36.470Z,21.28
2022-08-11T14:44:22.218Z,23.20
2022-08-11T14:47:23.189Z,22.04
2022-08-11T14:50:02.555Z,22.01
2022-08-11T14:53:05.282Z,22.68
2022-08-11T14:55:55.413Z,21.46
2022-08-11T14:58:26.067Z,22.33
2022-08-11T15:00:55.228Z,21.78
2022-08-11T15:03:28.263Z,22.54
2022-08-11T15:05:58.548Z,22.70
2022-08-11T15:08:47.762Z,22.72
2022-08-11T15:11:33.898Z,22.79
2022-08-11T15:14:02.330Z,20.63
2022-08-11T15:16:48.198Z,21.18
2022-08-11T15:19:16.584Z,20.93
2022-08-11T15:22:01.616Z,21.77
2022-08-11T15:24:30.728Z,21.66
2022-08-11T15:27:19.162Z,23.59
2022-08-11T15:30:05.939Z,23.27
2022-08-11T15:32:53.792Z,21.93
2022-08-11T15:35:39.875Z,22.17
2022-08-11T15:38:11.592Z,22.04
2022-08-11T15:40:59.215Z,23.46
2022-08-11T15:43:56.958Z,22.21
2022-08-11T15:46:31.517Z,22.58
2022-08-11T15:49:11.299Z,22.22
2022-08-11T15:51:43.803Z,23.35
2022-08-11T15:54:17.316Z,22.60
2022-08-11T15:56:46.363Z,22.59
2022-08-11T15:59:43.308Z,24.19
2022-08-11T16:02:33.735Z,23.52
2022-08-11T16:05:04.095Z,24.30
2022-08-11T16:07:38.442Z,23.88
2022-08-11T16:10:18.737Z,25.46
2022-08-11T16:13:05.972Z,24.86
2022-08-11T16:15:54.568Z,24.68
2022-08-11T16:18:25.565Z,25.60
2022-08-11T16:20:56.936Z,26.28
2022-08-11T16:23:28.293Z,25.06
2022-08-11T16:27:02.258Z,26.03
2022-08-11T16:28:44.218Z,26.03
2022-08-11T16:31:12.541Z,26.04
2022-08-11T16:33:49.464Z,25.59
2022-08-11T16:36:38.434Z,26.03
2022-08-11T16:39:07.089Z,25.98
2022-08-11T16:41:53.986Z,26.20
2022-08-11T16:44:40.809Z,25.88
2022-08-11T16:47:12.011Z,25.25
2022-08-11T16:49:52.483Z,26.08
2022-08-11T16:52:20.335Z,26.00
2022-08-11T16:54:49.651Z,25.05
2022-08-11T16:57:39.888Z,25.47
2022-08-11T17:00:12.544Z,26.27
2022-08-11T17:03:05.348Z,26.05
2022-08-11T17:05:53.848Z,26.01
2022-08-11T17:08:44.078Z,26.17
2022-08-11T17:11:42.061Z,26.09
2022-08-11T17:14:35.004Z,26.12
2022-08-11T17:17:05.910Z,26.47
2022-08-11T17:20:41.240Z,25.96
2022-08-11T17:22:39.883Z,26.42
2022-08-11T17:25:08.731Z,26.67
2022-08-11T17:27:36.458Z,26.24
2022-08-11T17:30:06.263Z,27.02
2022-08-11T17:33:12.103Z,27.31
2022-08-11T17:35:41.570Z,27.29
2022-08-11T17:38:18.847Z,27.09
2022-08-11T17:41:06.723Z,28.11
2022-08-11T17:43:52.496Z,27.54
2022-08-11T17:46:39.049Z,27.83
2022-08-11T17:49:07.786Z,28.54
2022-08-11T17:51:53.934Z,28.09
2022-08-11T17:54:40.373Z,27.60
2022-08-11T17:57:28.546Z,27.67
2022-08-11T17:59:57.691Z,28.19
2022-08-11T18:02:53.386Z,28.34
2022-08-11T18:05:26.914Z,28.74
2022-08-11T18:08:15.149Z,29.03
2022-08-11T18:11:01.386Z,29.13
2022-08-11T18:13:49.754Z,30.01
2022-08-11T18:16:35.170Z,30.46
2022-08-11T18:19:21.044Z,30.23
2022-08-11T18:22:07.961Z,30.89
2022-08-11T18:25:07.392Z,31.17
2022-08-11T18:27:54.486Z,31.83
2022-08-11T18:30:39.912Z,31.58
2022-08-11T18:36:36.006Z,32.15
2022-08-11T18:39:23.579Z,32.76
2022-08-11T18:42:10.151Z,33.19
2022-08-11T18:44:57.057Z,34.69
2022-08-11T18:47:44.350Z,34.62
2022-08-11T18:50:38.855Z,35.45
2022-08-11T18:53:26.144Z,36.44
2022-08-11T18:56:11.527Z,37.15
2022-08-11T18:59:01.918Z,36.73
2022-08-11T19:01:54.814Z,38.23
2022-08-11T19:04:41.391Z,38.47
2022-08-11T19:07:28.691Z,38.66
2022-08-11T19:10:15.046Z,39.49
2022-08-11T19:13:01.876Z,39.76
2022-08-11T19:15:48.137Z,40.94
2022-08-11T19:18:38.354Z,41.23
2022-08-11T19:21:24.902Z,41.42
2022-08-11T19:24:14.804Z,42.23
2022-08-11T19:27:01.595Z,42.54
2022-08-11T19:30:05.233Z,43.52
2022-08-11T19:32:55.120Z,43.21
2022-08-11T19:35:40.485Z,43.89
2022-08-11T19:38:27.350Z,44.31
2022-08-11T19:41:13.253Z,44.57
2022-08-11T19:44:00.936Z,44.75
2022-08-11T19:46:46.221Z,44.86
2022-08-11T19:49:33.145Z,45.21
2022-08-11T19:52:18.463Z,46.04
2022-08-11T19:55:04.567Z,45.50
2022-08-11T19:57:50.715Z,46.02
2022-08-11T20:00:38.517Z,45.69
2022-08-11T20:03:27.171Z,46.59
2022-08-11T20:06:14.536Z,45.83
2022-08-11T20:09:02.583Z,45.93
2022-08-11T20:11:51.941Z,46.50
2022-08-11T20:14:39.449Z,46.15
2022-08-11T20:17:27.639Z,46.49
2022-08-11T20:20:13.979Z,47.82
2022-08-11T20:22:59.840Z,47.03
2022-08-11T20:25:46.126Z,47.49
2022-08-11T20:28:32.645Z,47.36
2022-08-11T20:31:17.636Z,47.67
2022-08-11T20:34:04.446Z,47.99
2022-08-11T20:36:54.886Z,48.22
2022-08-11T20:39:42.742Z,48.37
2022-08-11T20:42:39.948Z,48.97
2022-08-11T20:45:28.563Z,48.70
2022-08-11T20:48:16.345Z,49.74
2022-08-11T20:51:05.929Z,49.38
2022-08-11T20:53:56.412Z,50.04
2022-08-11T20:56:44.350Z,50.29
2022-08-11T20:59:33.350Z,50.43
2022-08-11T21:02:35.192Z,50.76
2022-08-11T21:06:09.071Z,51.03
2022-08-11T21:08:26.536Z,51.83
2022-08-11T21:11:13.977Z,51.96
2022-08-11T21:14:01.482Z,52.13
2022-08-11T21:16:53.635Z,52.04
2022-08-11T21:20:06.723Z,52.68
2022-08-11T21:22:59.143Z,52.82
2022-08-11T21:26:21.082Z,52.53
2022-08-11T21:29:07.949Z,54.34
2022-08-11T21:31:54.423Z,54.78
2022-08-11T21:34:41.717Z,54.01
2022-08-11T21:37:28.755Z,54.69
2022-08-11T21:40:17.724Z,55.27
2022-08-11T21:43:05.682Z,55.96
2022-08-11T21:45:54.072Z,56.17
2022-08-11T21:48:40.214Z,56.41
2022-08-11T21:51:25.105Z,56.65
2022-08-11T21:54:11.701Z,57.24
2022-08-11T21:56:58.132Z,57.27
2022-08-11T21:59:56.851Z,57.02
2022-08-11T22:02:43.362Z,58.44
2022-08-11T22:05:36.072Z,58.24
2022-08-11T22:08:21.674Z,58.76
2022-08-11T22:11:07.136Z,59.24
2022-08-11T22:14:06.318Z,59.60
2022-08-11T22:16:53.954Z,59.56
2022-08-11T22:19:41.508Z,59.88
2022-08-11T22:22:29.046Z,59.75
2022-08-11T22:25:18.555Z,59.93
2022-08-11T22:28:04.424Z,60.82
2022-08-11T22:30:49.870Z,60.41
2022-08-11T22:33:36.556Z,61.31
2022-08-11T22:36:27.827Z,61.55
2022-08-11T22:39:14.351Z,62.04
2022-08-11T22:41:59.539Z,61.97
2022-08-11T22:44:44.750Z,62.30
2022-08-11T22:47:38.262Z,62.40
2022-08-11T22:50:26.841Z,63.25
2022-08-11T22:53:12.913Z,63.77
2022-08-11T22:55:59.342Z,63.57
2022-08-11T22:58:44.511Z,63.84
2022-08-11T23:01:33.945Z,63.60
2022-08-11T23:04:20.278Z,64.41
2022-08-11T23:07:07.115Z,64.68
2022-08-11T23:09:53.045Z,64.09
2022-08-11T23:12:39.041Z,65.22
2022-08-11T23:15:24.642Z,65.61
2022-08-11T23:18:09.923Z,65.79
2022-08-11T23:20:56.619Z,65.69
2022-08-11T23:23:42.868Z,66.44
2022-08-11T23:26:28.611Z,66.45
2022-08-11T23:29:15.891Z,66.25
2022-08-11T23:32:02.271Z,67.09
2022-08-11T23:35:36.891Z,66.91
2022-08-11T23:37:59.868Z,66.97
2022-08-11T23:40:45.594Z,67.76
2022-08-11T23:43:42.279Z,67.66
2022-08-11T23:46:28.016Z,67.67
2022-08-11T23:49:20.900Z,68.22
2022-08-11T23:52:07.672Z,68.80
2022-08-11T23:54:54.065Z,68.56
2022-08-11T23:57:47.567Z,69.18
